PWSweather.com
Personal Weather Stations
Station Observations
KPAEXPOR2
Wellington Estates, Export, PA 15632

Wellington EstatesExport, PA 15632

Lat: 40.446, Lon: -79.592

Elevation: 1286

Station Type: PWS1000-TD

http://www.westmorelandweather.com

Latest ConditionsUpdated 4:45:02 AM EDT Thursday, Apr 24, 2014
Currently Today's Max Today's Min Today's Average
Temperature 28.9°F-1.7°C 33.8°F1.0°C 28.9°F-1.7°C 31.0°F-0.6°C
Dew Point 15.6°F-9.1°C 18.9°F-7.3°C 14.5°F-9.7°C 15.7°F-9.1°C
Winds Calm Calm 0.9 mph NW1.4 kmh NW - 0.3 mph 0.5 kmh
Wind Gusts -- 1.6 mph2.6 kmh - -
Humidity 57% 57% 50% 53%
Pressure 30.08 in1018.6 mb 30.09 in1019.0 mb 30.07 in1018.3 mb -
Hour Temp Dew Point Humidity Winds Wind Gusts Pressure Precip Precip Rate Daily Precip Total
04:45 AM 28.9°F-1.7°C 15.6°F-9.1°C 57% Calm Calm -- 30.08 in1018.6 mb 0.00 in0.0 mm 0.00 in/hr0.0 mm/hr 0.00 in0.0 mm
04:30 AM 29.1°F-1.6°C 14.6°F-9.7°C 54% Calm Calm -- 30.08 in1018.6 mb 0.00 in0.0 mm 0.00 in/hr0.0 mm/hr 0.00 in0.0 mm
04:15 AM 29.5°F-1.4°C 14.9°F-9.5°C 54% Calm Calm -- 30.08 in1018.6 mb 0.00 in0.0 mm 0.00 in/hr0.0 mm/hr 0.00 in0.0 mm
04:00 AM 29.6°F-1.3°C 14.6°F-9.7°C 53% Calm Calm -- 30.07 in1018.3 mb 0.00 in0.0 mm 0.00 in/hr0.0 mm/hr 0.00 in0.0 mm
03:45 AM 29.6°F-1.3°C 14.6°F-9.7°C 53% 0.1 mph NW0.2 kmh NW 0.7 mph1.1 kmh 30.08 in1018.6 mb 0.00 in0.0 mm 0.00 in/hr0.0 mm/hr 0.00 in0.0 mm
03:30 AM 30.0°F-1.1°C 14.5°F-9.7°C 52% Calm Calm -- 30.07 in1018.3 mb 0.00 in0.0 mm 0.00 in/hr0.0 mm/hr 0.00 in0.0 mm
03:15 AM 30.2°F-1.0°C 14.7°F-9.6°C 52% 0.1 mph NW0.2 kmh NW 0.7 mph1.1 kmh 30.07 in1018.3 mb 0.00 in0.0 mm 0.00 in/hr0.0 mm/hr 0.00 in0.0 mm
03:00 AM 30.4°F-0.9°C 14.9°F-9.5°C 52% 0.4 mph NW0.6 kmh NW 0.7 mph1.1 kmh 30.07 in1018.3 mb 0.00 in0.0 mm 0.00 in/hr0.0 mm/hr 0.00 in0.0 mm
02:45 AM 30.5°F-0.8°C 14.6°F-9.7°C 51% 0.7 mph NW1.1 kmh NW 0.7 mph1.1 kmh 30.08 in1018.6 mb 0.00 in0.0 mm 0.00 in/hr0.0 mm/hr 0.00 in0.0 mm
02:30 AM 30.5°F-0.8°C 14.6°F-9.7°C 51% 0.8 mph NW1.3 kmh NW 1.6 mph2.6 kmh 30.08 in1018.6 mb 0.00 in0.0 mm 0.00 in/hr0.0 mm/hr 0.00 in0.0 mm
02:15 AM 30.7°F-0.7°C 15.2°F-9.3°C 52% 0.9 mph NW1.4 kmh NW 1.6 mph2.6 kmh 30.08 in1018.6 mb 0.00 in0.0 mm 0.00 in/hr0.0 mm/hr 0.00 in0.0 mm
02:00 AM 31.3°F-0.4°C 15.7°F-9.1°C 52% 0.4 mph NW0.6 kmh NW 1.6 mph2.6 kmh 30.08 in1018.6 mb 0.00 in0.0 mm 0.00 in/hr0.0 mm/hr 0.00 in0.0 mm
01:45 AM 31.6°F-0.2°C 15.1°F-9.4°C 50% 0.1 mph N0.2 kmh N 0.7 mph1.1 kmh 30.08 in1018.6 mb 0.00 in0.0 mm 0.00 in/hr0.0 mm/hr 0.00 in0.0 mm
01:30 AM 31.8°F-0.1°C 15.8°F-9.0°C 51% 0.4 mph N0.6 kmh N 0.7 mph1.1 kmh 30.09 in1019.0 mb 0.00 in0.0 mm 0.00 in/hr0.0 mm/hr 0.00 in0.0 mm
01:15 AM 31.8°F-0.1°C 16.2°F-8.8°C 52% 0.4 mph NW0.6 kmh NW 0.7 mph1.1 kmh 30.09 in1019.0 mb 0.00 in0.0 mm 0.00 in/hr0.0 mm/hr 0.00 in0.0 mm
01:00 AM 32.2°F0.1°C 16.5°F-8.6°C 52% 0.3 mph NNW0.5 kmh NNW 0.7 mph1.1 kmh 30.09 in1019.0 mb 0.00 in0.0 mm 0.00 in/hr0.0 mm/hr 0.00 in0.0 mm
12:45 AM 32.5°F0.3°C 16.9°F-8.4°C 52% 0.6 mph N1.0 kmh N 0.7 mph1.1 kmh 30.09 in1019.0 mb 0.00 in0.0 mm 0.00 in/hr0.0 mm/hr 0.00 in0.0 mm
12:30 AM 32.9°F0.5°C 17.7°F-7.9°C 53% 0.3 mph N0.5 kmh N 0.7 mph1.1 kmh 30.09 in1019.0 mb 0.00 in0.0 mm 0.00 in/hr0.0 mm/hr 0.00 in0.0 mm
12:15 AM 33.2°F0.7°C 18.0°F-7.8°C 53% 0.6 mph NW1.0 kmh NW 1.6 mph2.6 kmh 30.09 in1019.0 mb 0.00 in0.0 mm 0.00 in/hr0.0 mm/hr 0.00 in0.0 mm
12:00 AM 33.8°F1.0°C 18.9°F-7.3°C 54% 0.6 mph NW1.0 kmh NW 1.6 mph2.6 kmh 30.09 in1019.0 mb 0.00 in0.0 mm 0.00 in/hr0.0 mm/hr 0.00 in0.0 mm